Time;durP1;ratioP1;P1;durP2;ratioP2;P2;SDS_P1;SDS_P2;PMS_P1;PMS_P2;Temp;Humidity;BMP_temperature;BMP_pressure;BME280_temperature;BME280_humidity;BME280_pressure;Samples;Min_cycle;Max_cycle;Signal;HPM_P1;HPM_P2
2023/06/15 00:01:15;;;;;;;4.47;1.55;;;13.60;91.90;;;;;;4817526;29;20845;-78
2023/06/15 00:03:46;;;;;;;3.55;2.03;;;13.50;91.90;;;;;;4786711;29;20445;-76
2023/06/15 00:06:16;;;;;;;6.03;1.85;;;14.60;92.20;;;;;;4784368;29;20221;-77
2023/06/15 00:08:43;;;;;;;3.10;1.60;;;13.40;92.00;;;;;;4798799;29;20082;-77
2023/06/15 00:11:16;;;;;;;5.82;2.35;;;13.40;92.00;;;;;;4796523;29;20097;-77
2023/06/15 00:13:43;;;;;;;3.83;1.73;;;13.40;92.10;;;;;;4793773;29;20098;-77
2023/06/15 00:16:18;;;;;;;4.03;1.95;;;13.30;92.10;;;;;;4797896;29;20580;-77
2023/06/15 00:18:48;;;;;;;9.45;2.25;;;13.30;92.20;;;;;;4786211;29;20673;-77
2023/06/15 00:21:20;;;;;;;5.90;2.10;;;13.30;92.50;;;;;;4781637;29;20158;-77
2023/06/15 00:23:46;;;;;;;;;;;13.30;92.50;;;;;;4794075;29;20058;-78
2023/06/15 00:26:13;;;;;;;5.32;2.30;;;13.20;92.50;;;;;;4798994;29;20632;-77
2023/06/15 00:28:40;;;;;;;3.38;1.50;;;13.10;92.30;;;;;;4795619;29;20090;-76
2023/06/15 00:31:07;;;;;;;8.52;2.38;;;12.20;92.20;;;;;;4780303;29;20062;-77
2023/06/15 00:33:37;;;;;;;5.07;2.00;;;13.10;92.60;;;;;;4793100;29;20125;-77
2023/06/15 00:36:10;;;;;;;3.75;2.00;;;13.10;92.70;;;;;;4796421;29;20669;-76
2023/06/15 00:38:40;;;;;;;7.10;3.08;;;13.00;92.70;;;;;;4801498;29;20062;-77
2023/06/15 00:41:07;;;;;;;5.10;2.30;;;13.00;92.70;;;;;;4798470;29;20583;-77
2023/06/15 00:43:35;;;;;;;6.85;2.35;;;12.90;92.90;;;;;;4804559;29;20060;-77
2023/06/15 00:46:10;;;;;;;7.05;2.75;;;12.90;93.10;;;;;;4789238;29;20321;-77
2023/06/15 00:48:41;;;;;;;5.05;2.00;;;12.80;93.20;;;;;;4783768;29;20163;-77
2023/06/15 00:51:13;;;;;;;7.07;2.80;;;12.80;93.30;;;;;;4786668;29;20065;-78
2023/06/15 00:53:44;;;;;;;3.53;2.13;;;12.70;93.40;;;;;;4808558;29;20529;-78
2023/06/15 00:56:13;;;;;;;4.05;2.55;;;12.70;93.50;;;;;;4805955;29;20078;-78
2023/06/15 00:58:39;;;;;;;4.78;3.08;;;12.70;93.60;;;;;;4800385;29;20047;-77
2023/06/15 01:01:06;;;;;;;4.60;2.60;;;12.60;93.70;;;;;;4804073;29;20061;-79
2023/06/15 01:03:35;;;;;;;8.25;2.78;;;12.60;93.70;;;;;;4786810;29;20051;-79
2023/06/15 01:06:12;;;;;;;5.50;2.47;;;12.50;93.70;;;;;;4795420;29;20061;-78
2023/06/15 01:08:53;;;;;;;6.63;2.15;;;12.50;93.80;;;;;;4790170;29;20218;-78
2023/06/15 01:11:23;;;;;;;9.70;2.72;;;12.40;93.80;;;;;;4802783;29;20312;-78
2023/06/15 01:13:53;;;;;;;4.50;2.50;;;12.40;93.80;;;;;;4782668;29;20081;-78
2023/06/15 01:16:28;;;;;;;4.22;2.33;;;12.30;93.80;;;;;;4790317;29;20075;-78
2023/06/15 01:18:59;;;;;;;3.60;2.22;;;12.30;93.90;;;;;;4804111;29;20081;-78
2023/06/15 01:21:30;;;;;;;4.87;2.20;;;12.30;94.00;;;;;;4799132;29;20062;-78
2023/06/15 01:24:12;;;;;;;6.15;2.70;;;12.20;94.10;;;;;;4799245;29;20057;-78
2023/06/15 01:26:41;;;;;;;3.75;2.45;;;12.20;94.20;;;;;;4796933;29;20078;-78
2023/06/15 01:29:10;;;;;;;8.38;3.10;;;12.20;94.30;;;;;;4801583;29;20054;-78
2023/06/15 01:31:39;;;;;;;4.13;2.40;;;12.20;94.40;;;;;;4782954;29;20113;-78
2023/06/15 01:34:08;;;;;;;4.28;2.75;;;12.10;94.50;;;;;;4790988;29;20058;-78
2023/06/15 01:36:36;;;;;;;4.78;2.40;;;12.10;94.60;;;;;;4798366;29;20129;-78
2023/06/15 01:39:05;;;;;;;5.05;2.83;;;12.00;94.60;;;;;;4800018;29;20065;-77
2023/06/15 01:41:36;;;;;;;6.65;3.97;;;12.20;94.80;;;;;;4785774;29;20756;-78
2023/06/15 01:44:05;;;;;;;4.45;2.92;;;12.00;95.30;;;;;;4791254;29;20050;-78
2023/06/15 01:46:33;;;;;;;5.95;2.60;;;12.00;95.10;;;;;;4788037;29;20058;-78
2023/06/15 01:49:01;;;;;;;4.57;2.50;;;11.90;95.20;;;;;;4795141;29;20471;-77
2023/06/15 01:51:33;;;;;;;4.63;2.47;;;11.90;95.30;;;;;;4805281;29;20101;-78
2023/06/15 01:54:06;;;;;;;3.70;2.58;;;11.90;95.20;;;;;;4800695;29;20143;-78
2023/06/15 01:56:33;;;;;;;5.53;2.80;;;11.80;95.30;;;;;;4803324;29;20093;-78
2023/06/15 01:59:00;;;;;;;4.55;2.20;;;11.80;95.30;;;;;;4796491;29;20292;-79
2023/06/15 02:01:27;;;;;;;3.25;1.88;;;11.80;95.40;;;;;;4800456;29;20063;-78
2023/06/15 02:03:54;;;;;;;3.45;2.60;;;11.80;95.50;;;;;;4802346;29;20130;-78
2023/06/15 02:06:22;;;;;;;4.88;1.88;;;11.70;95.50;;;;;;4804777;29;20063;-78
2023/06/15 02:08:50;;;;;;;4.47;1.80;;;11.70;95.40;;;;;;4782720;29;20092;-78
2023/06/15 02:11:18;;;;;;;3.88;2.53;;;11.60;95.40;;;;;;4784158;29;20107;-78
2023/06/15 02:13:45;;;;;;;6.05;3.20;;;11.60;95.40;;;;;;4782206;29;20713;-78
2023/06/15 02:16:13;;;;;;;4.65;3.08;;;11.50;95.40;;;;;;4790760;29;20153;-78
2023/06/15 02:18:44;;;;;;;4.15;2.95;;;11.50;95.50;;;;;;4796285;29;20686;-78
2023/06/15 02:21:12;;;;;;;4.38;2.33;;;11.40;95.70;;;;;;4799336;29;20058;-78
2023/06/15 02:23:38;;;;;;;2.95;1.67;;;11.30;95.70;;;;;;4796144;29;20055;-78
2023/06/15 02:26:05;;;;;;;1.90;1.15;;;11.30;95.90;;;;;;4794785;29;20074;-78
2023/06/15 02:28:33;;;;;;;3.08;1.27;;;11.30;95.90;;;;;;4799045;29;20094;-78
2023/06/15 02:31:00;;;;;;;3.28;1.48;;;11.20;95.90;;;;;;4792087;29;20058;-78
2023/06/15 02:33:28;;;;;;;2.30;1.15;;;11.20;96.00;;;;;;4788202;29;20047;-79
2023/06/15 02:35:55;;;;;;;3.67;1.27;;;11.10;96.10;;;;;;4787297;29;20054;-78
2023/06/15 02:38:26;;;;;;;4.95;2.42;;;11.10;96.20;;;;;;4800435;29;20051;-79
2023/06/15 02:40:52;;;;;;;4.43;2.22;;;11.10;96.20;;;;;;4794294;29;20347;-79
2023/06/15 02:43:19;;;;;;;6.50;2.58;;;11.10;96.30;;;;;;4802543;29;20165;-79
2023/06/15 02:45:51;;;;;;;8.27;2.70;;;11.10;96.40;;;;;;4800167;29;20068;-78
2023/06/15 02:48:19;;;;;;;3.90;2.70;;;11.10;96.50;;;;;;4811156;29;20512;-78
2023/06/15 02:50:46;;;;;;;2.47;1.10;;;11.10;96.60;;;;;;4800570;29;20089;-79
2023/06/15 02:53:16;;;;;;;2.50;1.75;;;11.10;96.60;;;;;;4801083;29;20054;-80
2023/06/15 02:55:45;;;;;;;4.00;2.63;;;13.60;97.20;;;;;;4785385;29;20739;-79
2023/06/15 02:58:13;;;;;;;6.82;2.90;;;11.00;96.50;;;;;;4780219;29;20094;-79
2023/06/15 03:00:42;;;;;;;4.70;2.90;;;10.90;96.70;;;;;;4800039;29;20059;-79
2023/06/15 03:03:09;;;;;;;4.55;2.70;;;10.90;96.50;;;;;;4801897;29;20113;-79
2023/06/15 03:05:36;;;;;;;6.55;2.90;;;10.80;96.50;;;;;;4782484;29;20055;-79
2023/06/15 03:08:03;;;;;;;5.70;3.45;;;10.80;96.60;;;;;;4798185;29;20532;-80
2023/06/15 03:10:30;;;;;;;4.82;3.13;;;10.80;96.70;;;;;;4788505;29;20639;-79
2023/06/15 03:13:00;;;;;;;6.35;3.50;;;10.80;96.90;;;;;;4789360;29;20050;-78
2023/06/15 03:15:27;;;;;;;5.78;3.45;;;10.70;97.00;;;;;;4797497;29;20058;-79
2023/06/15 03:17:54;;;;;;;5.25;3.47;;;10.70;97.10;;;;;;4789694;29;20058;-80
2023/06/15 03:20:21;;;;;;;5.68;3.30;;;10.70;97.20;;;;;;4790111;29;20141;-78
2023/06/15 03:22:49;;;;;;;6.53;3.25;;;10.70;97.30;;;;;;4788766;29;20138;-79
2023/06/15 03:25:16;;;;;;;5.75;3.10;;;10.60;97.40;;;;;;4792113;29;20548;-80
2023/06/15 03:27:44;;;;;;;6.90;3.40;;;10.70;97.50;;;;;;4793474;29;20046;-79
2023/06/15 03:30:11;;;;;;;7.93;3.40;;;10.70;97.60;;;;;;4802351;29;20577;-80
2023/06/15 03:32:39;;;;;;;6.13;3.38;;;10.80;97.60;;;;;;4794459;29;20054;-78
2023/06/15 03:35:07;;;;;;;6.53;3.33;;;10.80;97.70;;;;;;4788543;29;20097;-78
2023/06/15 03:37:38;;;;;;;6.68;3.03;;;10.80;97.70;;;;;;4793858;29;20584;-79
2023/06/15 03:40:05;;;;;;;6.50;3.50;;;9.10;97.30;;;;;;4794883;29;20046;-80
2023/06/15 03:42:34;;;;;;;6.78;3.92;;;10.90;97.80;;;;;;4790800;29;20054;-78
2023/06/15 03:45:02;;;;;;;6.07;3.83;;;8.90;97.40;;;;;;4788525;29;20054;-79
2023/06/15 03:47:28;;;;;;;5.68;4.07;;;11.00;97.90;;;;;;4782017;29;20144;-79
2023/06/15 03:49:54;;;;;;;8.35;4.00;;;11.00;98.00;;;;;;4799819;29;20085;-79
2023/06/15 03:52:25;;;;;;;6.68;4.50;;;11.10;98.10;;;;;;4798908;29;20208;-80
2023/06/15 03:54:53;;;;;;;6.10;4.45;;;11.10;98.20;;;;;;4807557;29;20062;-78
2023/06/15 03:57:20;;;;;;;7.38;4.47;;;11.20;98.20;;;;;;4795252;29;20086;-79
2023/06/15 03:59:51;;;;;;;9.13;4.43;;;11.20;98.20;;;;;;4782679;29;20062;-78
2023/06/15 04:02:21;;;;;;;6.68;5.10;;;11.30;98.20;;;;;;4788503;29;20401;-78
2023/06/15 04:04:52;;;;;;;5.72;4.05;;;11.00;98.10;;;;;;4779999;29;20417;-78
2023/06/15 04:07:19;;;;;;;5.15;3.63;;;11.40;98.10;;;;;;4793521;29;20131;-78
2023/06/15 04:09:53;;;;;;;9.90;3.55;;;11.40;98.00;;;;;;4811914;29;20206;-78
2023/06/15 04:12:26;;;;;;;6.32;3.83;;;11.40;97.90;;;;;;4795457;29;20137;-79
2023/06/15 04:15:00;;;;;;;7.78;3.72;;;11.50;97.80;;;;;;4797179;29;20145;-80
2023/06/15 04:17:32;;;;;;;6.90;4.18;;;11.60;98.00;;;;;;4810369;29;20058;-78
2023/06/15 04:20:05;;;;;;;9.52;4.30;;;11.90;98.20;;;;;;4800742;29;20068;-79
2023/06/15 04:22:33;;;;;;;5.72;3.40;;;12.20;98.50;;;;;;4800012;29;20602;-80
2023/06/15 04:27:49;;;;;;;5.50;3.08;;;13.00;98.60;;;;;;4779041;29;20050;-78
2023/06/15 04:30:24;;;;;;;5.25;3.03;;;13.40;98.30;;;;;;4802823;29;20116;-78
2023/06/15 04:32:59;;;;;;;5.28;2.53;;;13.70;97.90;;;;;;4802848;29;20086;-79
2023/06/15 04:35:31;;;;;;;7.00;4.40;;;14.10;97.60;;;;;;4799201;29;20798;-79
2023/06/15 04:37:59;;;;;;;4.75;3.88;;;14.70;96.60;;;;;;4788693;29;20536;-79
2023/06/15 04:40:28;;;;;;;4.70;3.08;;;14.80;97.10;;;;;;4806723;29;20077;-78
2023/06/15 04:42:58;;;;;;;4.68;2.83;;;15.20;96.60;;;;;;4807689;29;20050;-79
2023/06/15 04:45:29;;;;;;;6.25;3.30;;;15.40;95.90;;;;;;4798523;29;20050;-78
2023/06/15 04:48:01;;;;;;;5.88;4.20;;;15.70;95.30;;;;;;4790197;29;20077;-79
2023/06/15 04:50:38;;;;;;;8.77;3.20;;;15.80;94.80;;;;;;4797189;29;20093;-78
2023/06/15 04:53:06;;;;;;;4.72;2.88;;;15.80;94.00;;;;;;4787577;29;20098;-79
2023/06/15 04:55:37;;;;;;;7.13;3.85;;;15.90;93.60;;;;;;4800517;29;20092;-79
2023/06/15 04:58:08;;;;;;;10.25;3.85;;;15.90;93.20;;;;;;4796064;29;20046;-78
2023/06/15 05:00:38;;;;;;;7.90;4.88;;;15.90;93.10;;;;;;4820207;29;20126;-77
2023/06/15 05:03:05;;;;;;;12.40;4.45;;;16.10;93.10;;;;;;4806717;29;20475;-79
2023/06/15 05:05:38;;;;;;;6.82;4.03;;;16.10;92.80;;;;;;4785941;29;20512;-78
2023/06/15 05:08:05;;;;;;;8.20;3.97;;;16.30;92.70;;;;;;4798214;29;20656;-78
2023/06/15 05:10:34;;;;;;;8.35;4.63;;;16.50;92.40;;;;;;4790196;29;20157;-78
2023/06/15 05:13:03;;;;;;;7.25;3.95;;;16.80;92.10;;;;;;4803671;29;20085;-78
2023/06/15 05:15:30;;;;;;;10.70;5.22;;;17.00;91.60;;;;;;4805483;29;20065;-77
2023/06/15 05:17:57;;;;;;;10.73;3.88;;;17.20;90.90;;;;;;4809985;29;20060;-78
2023/06/15 05:20:24;;;;;;;7.82;4.22;;;17.20;90.60;;;;;;4803184;29;20046;-78
2023/06/15 05:22:52;;;;;;;7.75;3.85;;;17.20;90.30;;;;;;4804123;29;20065;-77
2023/06/15 05:25:22;;;;;;;6.55;3.22;;;17.30;90.10;;;;;;4801241;29;20078;-76
2023/06/15 05:27:52;;;;;;;8.60;3.53;;;17.30;89.80;;;;;;4788552;29;20332;-77
2023/06/15 05:30:19;;;;;;;8.27;3.75;;;17.30;89.00;;;;;;4805749;29;20050;-75
2023/06/15 05:32:46;;;;;;;7.40;3.50;;;17.30;88.60;;;;;;4782202;29;20146;-75
2023/06/15 05:35:13;;;;;;;6.03;3.58;;;17.30;88.10;;;;;;4794235;29;20704;-75
2023/06/15 05:37:41;;;;;;;5.65;3.25;;;17.30;88.00;;;;;;4801778;29;20108;-75
2023/06/15 05:40:08;;;;;;;6.75;3.17;;;17.40;87.60;;;;;;4789248;29;20157;-77
2023/06/15 05:42:39;;;;;;;9.30;4.43;;;17.60;87.70;;;;;;4798798;29;20535;-78
2023/06/15 05:45:06;;;;;;;5.60;2.85;;;17.90;87.00;;;;;;4793441;29;20097;-77
2023/06/15 05:47:35;;;;;;;5.68;2.80;;;18.30;85.80;;;;;;4800181;29;20059;-72
2023/06/15 05:50:02;;;;;;;4.68;2.90;;;19.10;83.90;;;;;;4790207;29;20054;-76
2023/06/15 05:52:32;;;;;;;4.32;2.83;;;19.90;81.80;;;;;;4799603;29;20161;-76
2023/06/15 05:55:00;;;;;;;4.93;2.65;;;20.40;79.50;;;;;;4803688;29;20058;-76
2023/06/15 05:57:26;;;;;;;4.47;2.50;;;21.10;77.20;;;;;;4809135;29;20110;-76
2023/06/15 05:59:54;;;;;;;8.23;2.50;;;22.00;74.80;;;;;;4804191;29;20058;-76
2023/06/15 06:02:23;;;;;;;5.80;2.47;;;22.90;72.20;;;;;;4801328;29;20050;-78
2023/06/15 06:04:49;;;;;;;6.95;2.15;;;23.90;69.20;;;;;;4796962;29;20544;-76
2023/06/15 06:07:16;;;;;;;5.38;2.13;;;24.60;66.30;;;;;;4793731;29;20053;-78
2023/06/15 06:09:43;;;;;;;5.72;2.38;;;24.90;64.40;;;;;;4783304;29;20350;-74
2023/06/15 06:12:10;;;;;;;3.70;2.10;;;26.30;61.80;;;;;;4789958;29;20058;-77
2023/06/15 06:14:37;;;;;;;8.95;2.13;;;25.30;59.30;;;;;;4784527;29;20058;-77
2023/06/15 06:17:05;;;;;;;4.75;1.65;;;28.10;58.40;;;;;;4787889;29;20489;-77
2023/06/15 06:19:32;;;;;;;4.03;1.80;;;28.90;56.20;;;;;;4767731;24;20065;-76
2023/06/15 06:22:00;;;;;;;3.58;1.60;;;29.40;53.90;;;;;;4762384;30;20051;-75
2023/06/15 06:24:27;;;;;;;3.47;1.90;;;30.00;52.80;;;;;;4765122;29;20066;-75
2023/06/15 06:26:54;;;;;;;5.05;1.73;;;30.80;51.80;;;;;;4764775;29;20059;-77
2023/06/15 06:29:24;;;;;;;7.95;1.88;;;31.40;51.20;;;;;;4781454;29;20055;-75
2023/06/15 06:31:51;;;;;;;5.88;2.08;;;32.00;49.00;;;;;;4749555;29;20059;-77
2023/06/15 06:34:18;;;;;;;5.85;1.70;;;32.30;47.50;;;;;;4767260;29;20059;-79
2023/06/15 06:36:46;;;;;;;7.45;2.17;;;32.70;46.70;;;;;;4769355;29;20105;-78
2023/06/15 06:39:12;;;;;;;6.57;2.05;;;33.20;45.80;;;;;;4786447;29;20058;-77
2023/06/15 06:41:39;;;;;;;4.38;1.75;;;33.70;45.40;;;;;;4790354;29;20063;-77
2023/06/15 06:44:07;;;;;;;6.55;1.85;;;34.30;44.20;;;;;;4768779;29;20255;-78
2023/06/15 06:46:36;;;;;;;4.70;1.90;;;34.70;42.90;;;;;;4767254;30;20417;-78
2023/06/15 06:49:03;;;;;;;6.78;1.73;;;35.00;42.30;;;;;;4758378;30;20055;-78
2023/06/15 06:51:31;;;;;;;3.97;2.42;;;35.50;41.50;;;;;;4763109;29;20076;-78
2023/06/15 06:54:00;;;;;;;5.93;2.00;;;36.00;40.60;;;;;;4773677;29;20047;-80
2023/06/15 06:56:27;;;;;;;6.63;1.90;;;36.10;39.70;;;;;;4782530;29;20059;-77
2023/06/15 06:58:55;;;;;;;4.57;2.75;;;36.60;39.50;;;;;;4781724;29;20054;-78
2023/06/15 07:01:22;;;;;;;5.55;1.95;;;37.10;39.60;;;;;;4787338;29;20646;-78
2023/06/15 07:03:49;;;;;;;6.88;1.85;;;37.80;39.10;;;;;;4760082;30;20138;-76
2023/06/15 07:06:15;;;;;;;4.00;2.05;;;38.30;38.90;;;;;;4757858;29;20680;-79
2023/06/15 07:08:42;;;;;;;5.93;1.67;;;38.60;37.40;;;;;;4764979;30;20050;-75
2023/06/15 07:11:12;;;;;;;5.18;2.05;;;38.90;36.30;;;;;;4764477;29;20787;-75
2023/06/15 07:13:41;;;;;;;8.80;1.70;;;39.40;35.50;;;;;;4769326;29;20609;-74
2023/06/15 07:16:07;;;;;;;4.28;1.75;;;39.80;35.10;;;;;;4780445;29;20885;-77
2023/06/15 07:18:33;;;;;;;2.90;1.80;;;39.70;34.40;;;;;;4765852;29;20075;-73
2023/06/15 07:21:03;;;;;;;3.53;1.85;;;39.90;34.30;;;;;;4787763;29;20924;-78
2023/06/15 07:23:34;;;;;;;6.90;2.08;;;39.90;33.80;;;;;;4778981;29;20961;-75
2023/06/15 07:26:00;;;;;;;3.17;1.53;;;39.70;33.80;;;;;;4789430;29;20746;-76
2023/06/15 07:28:28;;;;;;;4.68;2.25;;;39.70;34.90;;;;;;4783298;29;20297;-78
2023/06/15 07:30:55;;;;;;;13.50;2.75;;;40.10;34.50;;;;;;4786976;29;20057;-77
2023/06/15 07:33:21;;;;;;;5.68;1.90;;;40.60;34.30;;;;;;4781519;29;20062;-75
2023/06/15 07:35:48;;;;;;;3.30;1.58;;;41.20;34.50;;;;;;4782783;29;20437;-78
2023/06/15 07:38:15;;;;;;;5.95;1.55;;;41.50;33.60;;;;;;4767922;30;20059;-75
2023/06/15 07:40:46;;;;;;;5.13;1.70;;;41.80;33.20;;;;;;4784065;29;20129;-76
2023/06/15 07:43:13;;;;;;;4.50;1.55;;;42.10;32.10;;;;;;4764134;29;20470;-75
2023/06/15 07:45:44;;;;;;;3.45;1.63;;;42.00;32.50;;;;;;4755633;29;20054;-79
2023/06/15 07:48:15;;;;;;;7.47;1.83;;;41.80;32.50;;;;;;4769809;29;20117;-79
2023/06/15 07:50:46;;;;;;;4.75;2.00;;;42.30;32.10;;;;;;4781296;29;20548;-75
2023/06/15 07:53:13;;;;;;;5.75;2.10;;;42.90;32.20;;;;;;4773150;30;20055;-77
2023/06/15 07:55:40;;;;;;;4.05;1.60;;;43.00;31.30;;;;;;4760322;29;20055;-77
2023/06/15 07:58:08;;;;;;;32.40;2.72;;;43.20;31.80;;;;;;4765402;29;20183;-77
2023/06/15 08:00:35;;;;;;;4.03;1.02;;;42.80;30.90;;;;;;4778515;29;20584;-78
2023/06/15 08:03:06;;;;;;;2.78;1.45;;;42.90;31.60;;;;;;4752606;29;20058;-78
2023/06/15 08:05:33;;;;;;;2.05;1.08;;;42.80;31.20;;;;;;4758032;29;20520;-80
2023/06/15 08:08:03;;;;;;;3.40;0.97;;;42.90;31.30;;;;;;4756843;29;20111;-75
2023/06/15 08:10:33;;;;;;;3.80;1.00;;;43.00;30.90;;;;;;4768213;29;20062;-78
2023/06/15 08:13:02;;;;;;;2.85;1.02;;;43.30;31.00;;;;;;4764808;29;20270;-79
2023/06/15 08:15:30;;;;;;;3.58;1.15;;;43.50;30.80;;;;;;4785772;29;20529;-75
2023/06/15 08:18:00;;;;;;;9.07;1.10;;;43.30;29.60;;;;;;4778469;29;20509;-78
2023/06/15 08:20:28;;;;;;;5.00;1.50;;;43.50;30.00;;;;;;4754181;29;20268;-76
2023/06/15 08:22:57;;;;;;;3.75;1.40;;;43.50;30.60;;;;;;4753852;29;20126;-74
2023/06/15 08:25:26;;;;;;;4.60;1.60;;;43.40;29.80;;;;;;4779542;29;20085;-76
2023/06/15 08:28:01;;;;;;;2.80;1.70;;;43.30;30.00;;;;;;4771346;29;20055;-77
2023/06/15 08:30:31;;;;;;;3.70;1.40;;;43.00;29.80;;;;;;4758520;29;20052;-76
2023/06/15 08:32:58;;;;;;;2.78;1.27;;;43.00;30.30;;;;;;4769888;29;20571;-74
2023/06/15 08:35:27;;;;;;;3.10;1.63;;;42.90;30.30;;;;;;4767358;29;20063;-83
2023/06/15 08:37:55;;;;;;;3.15;1.40;;;42.80;30.10;;;;;;4767728;29;20070;-78
2023/06/15 08:40:28;;;;;;;3.42;1.48;;;42.50;30.40;;;;;;4750034;29;20362;-76
2023/06/15 08:42:59;;;;;;;6.15;1.40;;;42.30;29.80;;;;;;4771121;29;20108;-78
2023/06/15 08:45:39;;;;;;;4.47;1.50;;;42.30;30.40;;;;;;4770477;29;20061;-77
2023/06/15 08:48:10;;;;;;;7.55;1.70;;;42.40;30.70;;;;;;4778841;29;20337;-77
2023/06/15 08:50:39;;;;;;;4.85;1.20;;;42.20;29.70;;;;;;4767442;29;20571;-78
2023/06/15 08:53:07;;;;;;;4.53;1.23;;;42.50;30.90;;;;;;4746814;29;20774;-74
2023/06/15 08:55:37;;;;;;;5.20;1.05;;;42.70;30.10;;;;;;4771429;29;20457;-78
2023/06/15 08:58:07;;;;;;;7.72;1.55;;;42.20;29.90;;;;;;4773319;29;20135;-77
2023/06/15 09:00:35;;;;;;;14.05;1.80;;;41.90;30.00;;;;;;4762416;29;20157;-77
2023/06/15 09:03:07;;;;;;;9.35;1.80;;;42.00;29.70;;;;;;4773817;29;20054;-74
2023/06/15 09:05:36;;;;;;;3.97;1.17;;;42.30;30.00;;;;;;4760362;29;20126;-77
2023/06/15 09:08:04;;;;;;;4.47;1.53;;;42.40;29.20;;;;;;4772096;29;20061;-78
2023/06/15 09:10:37;;;;;;;4.38;1.38;;;42.40;29.70;;;;;;4769797;29;20560;-74
2023/06/15 09:13:03;;;;;;;7.43;1.10;;;42.50;29.40;;;;;;4770823;29;20093;-77
2023/06/15 09:15:31;;;;;;;4.07;1.23;;;42.80;29.80;;;;;;4763867;29;20414;-76
2023/06/15 09:18:14;;;;;;;4.00;1.05;;;42.80;29.80;;;;;;4760451;29;20044;-78
2023/06/15 09:20:42;;;;;;;5.50;0.95;;;43.00;29.60;;;;;;4752338;29;20051;-73
2023/06/15 09:23:13;;;;;;;5.90;1.63;;;43.00;29.50;;;;;;4775194;29;20776;-76
2023/06/15 09:25:47;;;;;;;4.22;1.30;;;42.90;29.10;;;;;;4766061;29;20142;-74
2023/06/15 09:28:16;;;;;;;10.05;1.60;;;42.80;28.80;;;;;;4772092;29;20159;-76
2023/06/15 09:30:43;;;;;;;3.08;0.88;;;42.70;29.00;;;;;;4768623;29;20891;-76
2023/06/15 09:33:18;;;;;;;4.63;1.33;;;42.80;29.60;;;;;;4769388;29;20058;-75
2023/06/15 09:36:00;;;;;;;3.80;1.05;;;42.60;29.40;;;;;;4754059;29;20153;-76
2023/06/15 09:38:45;;;;;;;3.35;1.40;;;42.40;29.10;;;;;;4757942;30;20067;-75
2023/06/15 09:41:16;;;;;;;6.97;1.10;;;42.50;28.40;;;;;;4779814;29;20066;-79
2023/06/15 09:43:50;;;;;;;3.28;1.00;;;42.40;29.00;;;;;;4781845;29;20489;-75
2023/06/15 09:46:21;;;;;;;7.57;1.15;;;42.20;28.70;;;;;;4767027;29;20532;-75
2023/06/15 09:48:50;;;;;;;7.72;1.20;;;41.50;29.40;;;;;;4767638;29;20062;-77
2023/06/15 09:51:18;;;;;;;5.05;1.20;;;40.90;29.60;;;;;;4777430;29;20043;-78
2023/06/15 09:53:48;;;;;;;3.83;1.67;;;40.90;29.80;;;;;;4784890;29;20062;-77
2023/06/15 09:56:17;;;;;;;4.70;1.13;;;41.10;29.60;;;;;;4769468;29;20071;-76
2023/06/15 09:58:48;;;;;;;6.72;1.25;;;40.80;28.60;;;;;;4755126;29;20091;-77
2023/06/15 10:01:20;;;;;;;3.45;1.45;;;41.00;29.30;;;;;;4762591;29;20123;-75
2023/06/15 10:03:52;;;;;;;2.78;1.10;;;41.20;28.50;;;;;;4767377;29;20054;-75
2023/06/15 10:06:20;;;;;;;3.05;1.10;;;41.30;29.00;;;;;;4759138;29;20128;-77
2023/06/15 10:08:51;;;;;;;2.78;0.90;;;41.20;29.90;;;;;;4770418;29;20127;-76
2023/06/15 10:11:20;;;;;;;6.35;1.30;;;41.20;29.60;;;;;;4751848;29;20066;-72
2023/06/15 10:14:07;;;;;;;2.10;1.10;;;41.30;28.30;;;;;;4755873;29;20067;-73
2023/06/15 10:16:45;;;;;;;3.55;1.13;;;41.50;28.80;;;;;;4790706;29;20071;-76
2023/06/15 10:19:15;;;;;;;5.40;1.58;;;41.30;28.50;;;;;;4766559;30;20200;-71
2023/06/15 10:21:48;;;;;;;4.43;1.30;;;41.00;29.40;;;;;;4774430;29;20139;-76
2023/06/15 10:24:22;;;;;;;4.40;1.02;;;40.20;29.00;;;;;;4786332;29;20055;-76
2023/06/15 10:26:52;;;;;;;3.60;1.05;;;40.20;28.70;;;;;;4773319;29;20255;-76
2023/06/15 10:29:46;;;;;;;5.82;1.17;;;39.80;28.70;;;;;;4774662;29;20126;-74
2023/06/15 10:32:39;;;;;;;5.55;1.30;;;39.60;29.60;;;;;;4769360;29;20065;-74
2023/06/15 10:35:54;;;;;;;2.88;1.30;;;39.60;28.80;;;;;;4769811;30;20059;-77
2023/06/15 10:38:39;;;;;;;4.22;1.75;;;39.50;28.60;;;;;;4695142;30;20057;-77
2023/06/15 10:41:06;;;;;;;4.63;1.55;;;39.40;27.10;;;;;;4767379;29;20066;-76
2023/06/15 10:43:37;;;;;;;3.65;1.20;;;39.30;27.60;;;;;;4790905;29;20069;-74
2023/06/15 10:46:06;;;;;;;2.85;0.90;;;39.10;27.90;;;;;;4766117;30;20057;-75
2023/06/15 10:48:39;;;;;;;2.97;1.10;;;39.00;27.20;;;;;;4788110;29;20051;-74
2023/06/15 10:51:15;;;;;;;4.65;1.40;;;38.30;28.50;;;;;;4762554;30;20066;-73
2023/06/15 10:53:43;;;;;;;3.30;1.33;;;36.80;29.50;;;;;;4768066;29;20668;-72
2023/06/15 10:56:27;;;;;;;4.57;1.13;;;35.00;29.80;;;;;;4772462;29;20112;-74
2023/06/15 10:59:03;;;;;;;4.95;1.30;;;33.80;30.50;;;;;;4778610;29;20058;-74
2023/06/15 11:01:36;;;;;;;5.35;1.30;;;32.90;32.00;;;;;;4780696;29;20083;-78
2023/06/15 11:04:34;;;;;;;3.85;1.45;;;31.90;31.30;;;;;;4784878;29;20358;-77
2023/06/15 11:07:10;;;;;;;4.10;1.48;;;31.20;34.10;;;;;;4782801;29;20510;-77
2023/06/15 11:09:42;;;;;;;5.40;1.48;;;30.20;35.50;;;;;;4763017;29;20059;-78
2023/06/15 11:12:35;;;;;;;3.92;1.33;;;29.60;37.90;;;;;;4779584;29;20067;-73
2023/06/15 11:15:05;;;;;;;6.65;1.90;;;28.90;37.00;;;;;;4767313;29;20128;-75
2023/06/15 11:17:53;;;;;;;6.22;2.40;;;28.50;37.60;;;;;;4769704;29;20541;-76
2023/06/15 11:20:52;;;;;;;5.25;1.30;;;28.30;39.60;;;;;;4787141;29;20057;-74
2023/06/15 11:23:24;;;;;;;4.35;1.73;;;28.00;39.90;;;;;;4726977;29;1672365;-76
2023/06/15 11:25:54;;;;;;;4.22;1.52;;;27.70;39.90;;;;;;4787701;29;20066;-75
2023/06/15 11:28:31;;;;;;;4.53;1.98;;;27.70;38.20;;;;;;4765230;29;20047;-74
2023/06/15 11:31:05;;;;;;;4.70;1.40;;;27.40;37.70;;;;;;4773282;29;20127;-80
2023/06/15 11:33:40;;;;;;;3.70;1.00;;;27.30;38.70;;;;;;4761972;29;20059;-81
2023/06/15 11:36:09;;;;;;;3.05;1.45;;;27.10;39.60;;;;;;4768205;29;20163;-75
2023/06/15 11:38:37;;;;;;;4.25;2.05;;;27.00;39.20;;;;;;4758122;29;20082;-76
2023/06/15 11:41:10;;;;;;;3.20;1.90;;;26.90;40.10;;;;;;4780955;29;20675;-78
2023/06/15 11:43:42;;;;;;;5.00;1.60;;;26.80;40.70;;;;;;4773778;29;20050;-79
2023/06/15 11:46:14;;;;;;;5.47;1.40;;;26.60;41.90;;;;;;4746605;30;20134;-73
2023/06/15 11:48:42;;;;;;;7.32;1.60;;;27.10;43.20;;;;;;4754212;29;20545;-75
2023/06/15 11:51:11;;;;;;;4.40;1.10;;;26.50;41.00;;;;;;4761828;30;20309;-74
2023/06/15 11:53:39;;;;;;;7.03;1.55;;;26.60;40.80;;;;;;4761253;30;20066;-77
2023/06/15 11:56:14;;;;;;;3.03;1.50;;;26.60;40.30;;;;;;4769873;29;20137;-79
2023/06/15 11:58:44;;;;;;;4.38;2.05;;;26.60;41.80;;;;;;4769599;29;20059;-75
2023/06/15 12:01:15;;;;;;;6.57;1.90;;;26.50;42.40;;;;;;4757218;29;20058;-73
2023/06/15 12:03:48;;;;;;;4.22;1.50;;;26.30;43.30;;;;;;4768604;29;20061;-73
2023/06/15 12:06:17;;;;;;;6.57;2.17;;;26.20;42.20;;;;;;4769713;29;20061;-73
2023/06/15 12:08:50;;;;;;;4.97;1.35;;;26.10;42.90;;;;;;4778954;29;20059;-75
2023/06/15 12:11:23;;;;;;;4.30;1.40;;;26.10;40.10;;;;;;4763357;29;20053;-74
2023/06/15 12:13:50;;;;;;;2.97;1.20;;;26.10;40.50;;;;;;4782252;29;20132;-75
2023/06/15 12:16:18;;;;;;;5.25;1.60;;;26.30;39.10;;;;;;4775070;29;20055;-76
2023/06/15 12:18:59;;;;;;;4.95;1.20;;;26.00;38.70;;;;;;4773826;29;20050;-75
2023/06/15 12:21:34;;;;;;;5.93;1.70;;;24.00;38.10;;;;;;4763215;29;20134;-72
2023/06/15 12:24:13;;;;;;;5.55;1.83;;;25.90;40.50;;;;;;4777575;29;20059;-72
2023/06/15 12:26:41;;;;;;;3.83;1.70;;;25.90;42.00;;;;;;4774388;29;20067;-77
2023/06/15 12:29:17;;;;;;;6.68;1.70;;;25.80;40.40;;;;;;4780819;29;20540;-75
2023/06/15 12:31:55;;;;;;;2.83;1.58;;;25.80;41.80;;;;;;4778227;29;20798;-76
2023/06/15 12:34:24;;;;;;;4.05;1.50;;;25.70;42.20;;;;;;4765862;29;20070;-76
2023/06/15 12:36:57;;;;;;;2.78;1.83;;;25.60;43.00;;;;;;4755827;29;20138;-77
2023/06/15 12:39:30;;;;;;;4.45;1.70;;;25.80;42.80;;;;;;4783707;29;20051;-78
2023/06/15 12:42:07;;;;;;;3.30;1.58;;;25.90;41.20;;;;;;4765532;29;20112;-76
2023/06/15 12:44:38;;;;;;;7.80;1.90;;;26.00;41.90;;;;;;4781643;29;20055;-70
2023/06/15 12:47:12;;;;;;;3.92;1.60;;;26.00;41.50;;;;;;4771874;29;20061;-74
2023/06/15 12:49:45;;;;;;;3.50;1.85;;;26.00;40.50;;;;;;4769161;29;20066;-74
2023/06/15 12:52:23;;;;;;;2.97;1.50;;;26.10;40.60;;;;;;4772360;29;20670;-73
2023/06/15 12:54:52;;;;;;;3.92;1.35;;;26.10;39.20;;;;;;4770864;29;20055;-74
2023/06/15 12:57:19;;;;;;;2.58;1.73;;;26.20;40.50;;;;;;4767597;30;20070;-73
2023/06/15 12:59:49;;;;;;;4.63;1.10;;;26.40;40.70;;;;;;4782872;29;20536;-77
2023/06/15 13:02:16;;;;;;;4.22;1.50;;;26.60;41.20;;;;;;4764522;29;20219;-73
2023/06/15 13:04:44;;;;;;;4.20;1.50;;;26.80;39.70;;;;;;4781948;29;20055;-74
2023/06/15 13:07:12;;;;;;;3.03;1.45;;;26.90;38.90;;;;;;4781494;29;20088;-72